createdAt,value
2023-06-08T00:02:20.369Z,100738.00
2023-06-08T00:06:26.908Z,100739.69
2023-06-08T00:10:28.940Z,100753.19
2023-06-08T00:14:31.270Z,100755.31
2023-06-08T00:18:33.436Z,100758.94
2023-06-08T00:22:37.865Z,100770.63
2023-06-08T00:26:40.931Z,100769.91
2023-06-08T00:30:42.982Z,100766.97
2023-06-08T00:34:45.281Z,100764.72
2023-06-08T00:38:47.505Z,100770.72
2023-06-08T00:42:50.444Z,100757.41
2023-06-08T00:46:53.275Z,100751.91
2023-06-08T00:50:57.727Z,100753.78
2023-06-08T00:55:01.860Z,100749.22
2023-06-08T00:59:04.374Z,100748.56
2023-06-08T01:03:07.478Z,100748.03
2023-06-08T01:07:49.991Z,100748.25
2023-06-08T01:12:16.887Z,100761.41
2023-06-08T01:16:20.941Z,100763.72
2023-06-08T01:20:35.985Z,100757.78
2023-06-08T01:24:39.992Z,100756.59
2023-06-08T01:28:42.244Z,100753.84
2023-06-08T01:32:45.076Z,100749.06
2023-06-08T01:37:01.578Z,100752.34
2023-06-08T01:41:09.051Z,100759.31
2023-06-08T01:45:14.510Z,100768.94
2023-06-08T01:49:19.098Z,100757.94
2023-06-08T01:53:22.238Z,100757.38
2023-06-08T01:57:24.368Z,100757.66
2023-06-08T02:01:26.581Z,100769.63
2023-06-08T02:05:28.825Z,100764.25
2023-06-08T02:09:31.318Z,100766.50
2023-06-08T02:13:35.719Z,100759.47
2023-06-08T02:17:38.133Z,100756.47
2023-06-08T02:21:40.391Z,100768.78
2023-06-08T02:25:42.433Z,100765.78
2023-06-08T02:29:44.667Z,100768.47
2023-06-08T02:33:47.198Z,100776.09
2023-06-08T02:37:49.280Z,100770.03
2023-06-08T02:41:51.482Z,100772.59
2023-06-08T02:45:53.788Z,100771.38
2023-06-08T02:49:59.099Z,100767.31
2023-06-08T02:54:01.288Z,100770.81
2023-06-08T02:58:04.499Z,100761.03
2023-06-08T03:02:08.903Z,100767.03
2023-06-08T03:06:18.982Z,100778.75
2023-06-08T03:10:23.241Z,100787.66
2023-06-08T03:14:30.121Z,100796.25
2023-06-08T03:18:35.411Z,100790.97
2023-06-08T03:22:37.796Z,100804.88
2023-06-08T03:26:42.437Z,100811.03
2023-06-08T03:30:46.983Z,100806.53
2023-06-08T03:34:51.452Z,100796.09
2023-06-08T03:38:53.549Z,100788.97
2023-06-08T03:42:56.070Z,100791.75
2023-06-08T03:47:01.272Z,100770.63
2023-06-08T03:51:05.956Z,100778.56
2023-06-08T03:55:12.789Z,100772.09
2023-06-08T03:59:15.291Z,100766.94
2023-06-08T04:03:21.457Z,100769.66
2023-06-08T04:07:23.995Z,100759.69
2023-06-08T04:11:26.930Z,100754.50
2023-06-08T04:15:29.170Z,100752.56
2023-06-08T04:19:32.894Z,100766.28
2023-06-08T04:23:37.441Z,100759.00
2023-06-08T04:27:42.315Z,100767.53
2023-06-08T04:31:44.580Z,100767.06
2023-06-08T04:35:46.960Z,100780.56
2023-06-08T04:39:50.252Z,100780.38
2023-06-08T04:43:55.479Z,100778.84
2023-06-08T04:47:58.814Z,100784.91
2023-06-08T04:52:01.694Z,100788.66
2023-06-08T04:56:04.347Z,100801.22
2023-06-08T05:00:09.048Z,100797.44
2023-06-08T05:04:11.983Z,100819.41
2023-06-08T05:08:14.320Z,100815.69
2023-06-08T05:12:16.344Z,100819.78
2023-06-08T05:16:18.688Z,100828.44
2023-06-08T05:20:23.812Z,100853.75
2023-06-08T05:24:26.049Z,100848.31
2023-06-08T05:28:28.159Z,100872.78
2023-06-08T05:32:29.884Z,100864.34
2023-06-08T05:36:31.915Z,100867.00
2023-06-08T05:40:35.140Z,100856.06
2023-06-08T05:44:37.207Z,100876.31
2023-06-08T05:48:39.433Z,100887.47
2023-06-08T05:52:41.574Z,100885.03
2023-06-08T05:56:43.868Z,100886.41
2023-06-08T06:00:46.086Z,100884.03
2023-06-08T06:04:48.423Z,100890.38
2023-06-08T06:08:50.954Z,100878.16
2023-06-08T06:12:53.049Z,100893.91
2023-06-08T06:17:06.793Z,100897.50
2023-06-08T06:21:10.187Z,100896.59
2023-06-08T06:25:12.348Z,100906.03
2023-06-08T06:29:14.111Z,100895.66
2023-06-08T06:33:16.654Z,100894.41
2023-06-08T06:37:18.694Z,100892.34
2023-06-08T06:41:21.757Z,100896.97
2023-06-08T06:45:23.802Z,100890.38
2023-06-08T06:49:25.821Z,100898.25
2023-06-08T06:53:29.362Z,100896.94
2023-06-08T06:57:33.887Z,100892.09
2023-06-08T07:01:37.372Z,100899.09
2023-06-08T07:05:39.934Z,100890.47
2023-06-08T07:09:41.967Z,100895.59
2023-06-08T07:13:44.029Z,100896.44
2023-06-08T07:17:47.624Z,100897.19
2023-06-08T07:21:51.546Z,100904.44
2023-06-08T07:26:25.745Z,100893.25
2023-06-08T07:30:22.584Z,100899.47
2023-06-08T07:34:24.859Z,100895.31
2023-06-08T07:38:26.946Z,100897.22
2023-06-08T07:42:28.937Z,100891.88
2023-06-08T07:46:32.500Z,100886.16
2023-06-08T07:50:34.708Z,100892.72
2023-06-08T07:54:38.424Z,100883.72
2023-06-08T07:58:40.514Z,100889.19
2023-06-08T08:02:42.908Z,100879.84
2023-06-08T08:06:45.177Z,100886.41
2023-06-08T08:10:48.083Z,100878.78
2023-06-08T08:14:50.328Z,100879.31
2023-06-08T08:18:52.440Z,100885.06
2023-06-08T08:22:54.581Z,100875.97
2023-06-08T08:26:56.630Z,100873.47
2023-06-08T08:31:00.320Z,100881.50
2023-06-08T08:35:03.390Z,100871.56
2023-06-08T08:39:05.640Z,100868.09
2023-06-08T08:43:17.069Z,100856.69
2023-06-08T08:47:20.013Z,100862.69
2023-06-08T08:51:22.771Z,100853.81
2023-06-08T08:55:35.383Z,100858.75
2023-06-08T08:59:39.671Z,100859.88
2023-06-08T09:03:41.638Z,100852.91
2023-06-08T09:07:44.219Z,100851.63
2023-06-08T09:11:58.264Z,100852.25
2023-06-08T09:16:26.501Z,100839.88
2023-06-08T09:20:33.940Z,100833.91
2023-06-08T09:24:49.900Z,100830.41
2023-06-08T09:28:51.950Z,100833.34
2023-06-08T09:32:54.094Z,100838.28
2023-06-08T09:37:09.868Z,100832.66
2023-06-08T09:41:18.412Z,100823.97
2023-06-08T09:45:20.855Z,100824.78
2023-06-08T09:49:22.994Z,100819.47
2023-06-08T09:53:26.898Z,100810.97
2023-06-08T09:57:32.947Z,100819.50
2023-06-08T10:01:41.577Z,100810.66
2023-06-08T10:05:48.892Z,100807.88
2023-06-08T10:09:53.707Z,100805.06
2023-06-08T10:13:57.613Z,100799.41
2023-06-08T10:18:04.115Z,100803.19
2023-06-08T10:22:06.775Z,100796.34
2023-06-08T10:26:09.544Z,100792.69
2023-06-08T10:30:12.131Z,100786.47
2023-06-08T10:34:20.813Z,100786.34
2023-06-08T10:38:23.004Z,100792.06
2023-06-08T10:42:24.684Z,100792.09
2023-06-08T10:46:43.363Z,100785.94
2023-06-08T10:50:47.381Z,100784.78
2023-06-08T10:54:49.389Z,100780.59
2023-06-08T10:58:54.612Z,100785.56
2023-06-08T11:03:00.259Z,100764.13
2023-06-08T11:07:06.171Z,100775.06
2023-06-08T11:11:11.717Z,100766.63
2023-06-08T11:15:14.062Z,100766.50
2023-06-08T11:19:23.634Z,100761.81
2023-06-08T11:23:26.254Z,100762.19
2023-06-08T11:27:28.549Z,100758.06
2023-06-08T11:31:39.999Z,100759.28
2023-06-08T11:35:42.384Z,100748.34
2023-06-08T11:39:45.590Z,100728.78
2023-06-08T11:43:50.858Z,100736.72
2023-06-08T11:48:14.017Z,100725.09
2023-06-08T11:52:16.391Z,100730.28
2023-06-08T11:56:18.472Z,100730.56
2023-06-08T12:00:23.054Z,100726.88
2023-06-08T12:04:32.708Z,100722.72
2023-06-08T12:08:34.949Z,100729.50
2023-06-08T12:12:36.997Z,100715.66
2023-06-08T12:16:43.849Z,100713.50
2023-06-08T12:20:47.763Z,100712.81
2023-06-08T12:24:49.908Z,100716.53
2023-06-08T12:28:51.998Z,100711.84
2023-06-08T12:32:55.323Z,100713.16
2023-06-08T12:36:58.264Z,100701.56
2023-06-08T12:41:00.447Z,100689.84
2023-06-08T12:45:03.089Z,100704.66
2023-06-08T12:49:05.428Z,100691.69
2023-06-08T12:53:07.868Z,100691.28
2023-06-08T12:57:10.466Z,100687.31
2023-06-08T13:01:12.526Z,100676.72
2023-06-08T13:05:14.806Z,100683.31
2023-06-08T13:09:16.968Z,100676.50
2023-06-08T13:13:19.393Z,100674.25
2023-06-08T13:17:22.003Z,100666.59
2023-06-08T13:21:24.396Z,100673.00
2023-06-08T13:25:26.527Z,100676.56
2023-06-08T13:29:28.736Z,100669.09
2023-06-08T13:33:31.008Z,100659.09
2023-06-08T13:37:33.279Z,100663.44
2023-06-08T13:41:36.700Z,100651.84
2023-06-08T13:45:39.528Z,100654.53
2023-06-08T13:49:43.049Z,100658.88
2023-06-08T13:53:46.159Z,100649.53
2023-06-08T13:57:48.151Z,100657.44
2023-06-08T14:01:50.787Z,100645.13
2023-06-08T14:05:53.109Z,100639.75
2023-06-08T14:09:55.440Z,100639.56
2023-06-08T14:13:58.403Z,100641.22
2023-06-08T14:18:01.198Z,100645.38
2023-06-08T14:22:03.799Z,100640.19
2023-06-08T14:26:05.987Z,100640.38
2023-06-08T14:30:09.255Z,100625.00
2023-06-08T14:34:12.791Z,100632.09
2023-06-08T14:38:15.575Z,100621.81
2023-06-08T14:42:17.724Z,100620.75
2023-06-08T14:46:20.193Z,100613.19
2023-06-08T14:50:22.517Z,100623.63
2023-06-08T14:54:24.597Z,100621.13
2023-06-08T14:58:26.834Z,100622.91
2023-06-08T15:02:28.986Z,100615.66
2023-06-08T15:06:31.074Z,100627.69
2023-06-08T15:10:33.286Z,100615.03
2023-06-08T15:14:35.495Z,100617.56
2023-06-08T15:18:37.536Z,100613.25
2023-06-08T15:22:39.644Z,100614.97
2023-06-08T15:26:41.904Z,100605.72
2023-06-08T15:30:43.950Z,100611.84
2023-06-08T15:34:46.055Z,100611.25
2023-06-08T15:38:48.452Z,100603.72
2023-06-08T15:42:50.564Z,100608.00
2023-06-08T15:46:52.845Z,100604.16
2023-06-08T15:50:55.934Z,100606.13
2023-06-08T15:54:57.994Z,100615.25
2023-06-08T15:58:59.968Z,100614.50
2023-06-08T16:03:02.145Z,100616.66
2023-06-08T16:07:04.988Z,100617.97
2023-06-08T16:11:07.104Z,100615.19
2023-06-08T16:15:09.689Z,100611.59
2023-06-08T16:19:11.915Z,100616.13
2023-06-08T16:23:14.039Z,100605.81
2023-06-08T16:27:17.797Z,100605.50
2023-06-08T16:31:19.897Z,100608.75
2023-06-08T16:35:22.111Z,100608.03
2023-06-08T16:39:24.964Z,100610.31
2023-06-08T16:43:27.018Z,100604.09
2023-06-08T16:47:29.128Z,100601.41
2023-06-08T16:51:31.408Z,100609.47
2023-06-08T16:55:33.555Z,100601.22
2023-06-08T16:59:35.658Z,100600.28
2023-06-08T17:03:37.863Z,100597.56
2023-06-08T17:07:40.022Z,100608.94
2023-06-08T17:11:42.225Z,100609.03
2023-06-08T17:15:44.665Z,100608.25
2023-06-08T17:19:47.159Z,100608.50
2023-06-08T17:23:49.308Z,100608.03
2023-06-08T17:27:51.395Z,100609.53
2023-06-08T17:31:53.568Z,100616.56
2023-06-08T17:35:56.245Z,100613.94
2023-06-08T17:39:58.489Z,100613.53
2023-06-08T17:44:00.624Z,100623.63
2023-06-08T17:48:03.005Z,100626.34
2023-06-08T17:52:05.701Z,100630.53
2023-06-08T17:56:07.879Z,100628.78
2023-06-08T18:00:10.741Z,100628.50
2023-06-08T18:04:13.140Z,100631.03
2023-06-08T18:08:17.722Z,100631.56
2023-06-08T18:12:20.830Z,100635.72
2023-06-08T18:16:25.350Z,100634.38
2023-06-08T18:20:27.584Z,100634.56
2023-06-08T18:24:31.030Z,100636.25
2023-06-08T18:28:33.260Z,100636.38
2023-06-08T18:32:38.257Z,100636.50
2023-06-08T18:36:40.574Z,100645.78
2023-06-08T18:40:43.505Z,100637.38
2023-06-08T18:44:46.219Z,100636.25
2023-06-08T18:48:48.445Z,100631.28
2023-06-08T18:52:53.429Z,100631.63
2023-06-08T18:56:55.698Z,100635.31
2023-06-08T19:00:58.255Z,100649.59
2023-06-08T19:05:05.382Z,100646.84
2023-06-08T19:09:17.261Z,100648.72
2023-06-08T19:13:32.376Z,100651.81
2023-06-08T19:17:42.479Z,100656.91
2023-06-08T19:21:44.648Z,100655.34
2023-06-08T19:25:46.728Z,100661.41
2023-06-08T19:29:49.015Z,100658.09
2023-06-08T19:33:51.259Z,100661.44
2023-06-08T19:37:53.384Z,100653.59
2023-06-08T19:41:56.658Z,100655.28
2023-06-08T19:45:59.107Z,100654.69
2023-06-08T19:50:05.388Z,100656.81
2023-06-08T19:54:08.335Z,100653.00
2023-06-08T19:58:10.627Z,100655.22
2023-06-08T20:02:13.201Z,100649.59
2023-06-08T20:06:16.388Z,100652.09
2023-06-08T20:10:18.568Z,100649.50
2023-06-08T20:14:21.166Z,100645.53
2023-06-08T20:18:23.353Z,100647.56
2023-06-08T20:22:30.998Z,100648.94
2023-06-08T20:26:34.728Z,100646.09
2023-06-08T20:30:37.504Z,100638.09
2023-06-08T20:34:39.508Z,100641.41
2023-06-08T20:38:41.847Z,100633.94
2023-06-08T20:42:43.959Z,100635.94
2023-06-08T20:46:46.518Z,100632.16
2023-06-08T20:50:48.497Z,100635.41
2023-06-08T20:54:50.638Z,100627.22
2023-06-08T20:58:52.963Z,100623.56
2023-06-08T21:02:55.154Z,100624.19
2023-06-08T21:06:58.689Z,100614.59
2023-06-08T21:11:00.823Z,100602.56
2023-06-08T21:15:04.223Z,100604.69
2023-06-08T21:19:06.639Z,100608.53
2023-06-08T21:23:08.768Z,100602.16
2023-06-08T21:27:10.905Z,100593.03
2023-06-08T21:31:12.934Z,100598.09
2023-06-08T21:35:15.112Z,100588.97
2023-06-08T21:39:17.237Z,100595.03
2023-06-08T21:43:19.272Z,100594.66
2023-06-08T21:47:21.370Z,100588.50
2023-06-08T21:51:23.492Z,100586.31
2023-06-08T21:55:25.461Z,100582.00
2023-06-08T21:59:27.752Z,100591.28
2023-06-08T22:03:29.885Z,100586.47
2023-06-08T22:07:32.215Z,100580.22
2023-06-08T22:11:34.347Z,100579.97
2023-06-08T22:15:38.592Z,100581.19
2023-06-08T22:19:47.737Z,100578.91
2023-06-08T22:23:53.295Z,100573.97
2023-06-08T22:27:55.582Z,100567.22
2023-06-08T22:31:57.695Z,100559.63
2023-06-08T22:35:59.984Z,100558.31
2023-06-08T22:40:02.088Z,100547.47
2023-06-08T22:44:04.271Z,100559.41
2023-06-08T22:48:07.097Z,100552.53
2023-06-08T22:52:16.211Z,100558.91
2023-06-08T22:56:18.331Z,100549.53
2023-06-08T23:00:21.279Z,100539.91
2023-06-08T23:04:23.375Z,100536.53
2023-06-08T23:08:26.042Z,100535.44
2023-06-08T23:12:34.223Z,100533.91
2023-06-08T23:16:36.304Z,100529.78
2023-06-08T23:20:39.260Z,100522.34
2023-06-08T23:24:41.512Z,100519.09
2023-06-08T23:28:43.582Z,100515.00
2023-06-08T23:32:45.874Z,100516.16
2023-06-08T23:36:47.964Z,100523.16
2023-06-08T23:40:50.289Z,100515.34
2023-06-08T23:44:57.084Z,100516.53
2023-06-08T23:48:59.440Z,100514.75
2023-06-08T23:53:01.547Z,100511.63
2023-06-08T23:57:03.723Z,100515.69
